createdAt,value
2023-02-02T00:01:59.421Z,16.45
2023-02-02T00:04:27.355Z,12.63
2023-02-02T00:06:54.383Z,16.30
2023-02-02T00:09:21.062Z,18.92
2023-02-02T00:11:48.864Z,16.30
2023-02-02T00:14:15.392Z,20.88
2023-02-02T00:16:49.418Z,15.55
2023-02-02T00:19:21.666Z,17.13
2023-02-02T00:21:48.603Z,17.17
2023-02-02T00:24:17.943Z,18.10
2023-02-02T00:29:18.725Z,18.60
2023-02-02T00:31:46.529Z,18.50
2023-02-02T00:34:14.400Z,19.15
2023-02-02T00:36:41.670Z,19.02
2023-02-02T00:39:08.801Z,21.00
2023-02-02T00:41:35.299Z,16.20
2023-02-02T00:44:20.614Z,13.70
2023-02-02T00:46:47.565Z,14.30
2023-02-02T00:49:14.018Z,13.85
2023-02-02T00:51:40.494Z,20.85
2023-02-02T00:54:07.573Z,16.33
2023-02-02T00:56:34.119Z,20.92
2023-02-02T00:59:00.672Z,14.80
2023-02-02T01:04:20.634Z,15.95
2023-02-02T01:06:47.099Z,16.63
2023-02-02T01:09:13.818Z,17.35
2023-02-02T01:11:40.304Z,12.18
2023-02-02T01:14:07.070Z,18.27
2023-02-02T01:16:34.280Z,15.32
2023-02-02T01:23:13.554Z,17.27
2023-02-02T01:25:40.047Z,23.38
2023-02-02T01:28:06.527Z,21.08
2023-02-02T01:33:18.379Z,19.60
2023-02-02T01:35:48.225Z,23.90
2023-02-02T01:38:15.930Z,18.17
2023-02-02T01:40:53.466Z,16.65
2023-02-02T01:43:43.174Z,19.30
2023-02-02T01:46:20.837Z,18.30
2023-02-02T01:48:51.148Z,20.55
2023-02-02T01:51:20.706Z,15.30
2023-02-02T01:53:49.081Z,16.55
2023-02-02T01:56:25.041Z,21.58
2023-02-02T01:58:51.728Z,15.13
2023-02-02T02:01:18.491Z,15.63
2023-02-02T02:03:44.926Z,19.30
2023-02-02T02:06:14.691Z,15.55
2023-02-02T02:08:52.302Z,16.63
2023-02-02T02:11:20.666Z,19.38
2023-02-02T02:14:06.339Z,11.13
2023-02-02T02:16:40.495Z,14.68
2023-02-02T02:20:02.500Z,16.92
2023-02-02T02:22:58.573Z,17.60
2023-02-02T02:26:07.041Z,18.77
2023-02-02T02:28:55.692Z,18.60
2023-02-02T02:31:31.572Z,12.60
2023-02-02T02:34:07.712Z,18.50
2023-02-02T02:36:49.888Z,14.70
2023-02-02T02:39:33.087Z,14.77
2023-02-02T02:42:04.709Z,17.48
2023-02-02T02:44:32.109Z,22.08
2023-02-02T02:46:58.779Z,15.30
2023-02-02T02:49:25.527Z,12.60
2023-02-02T02:51:55.661Z,19.67
2023-02-02T02:54:33.263Z,14.38
2023-02-02T02:57:21.953Z,19.67
2023-02-02T02:59:48.391Z,17.17
2023-02-02T03:02:37.450Z,17.27
2023-02-02T03:05:37.348Z,17.50
2023-02-02T03:08:16.189Z,17.85
2023-02-02T03:10:44.753Z,18.70
2023-02-02T03:13:12.422Z,17.13
2023-02-02T03:15:43.694Z,15.93
2023-02-02T03:18:11.643Z,15.73
2023-02-02T03:20:38.081Z,15.60
2023-02-02T03:23:04.575Z,14.95
2023-02-02T03:25:31.231Z,16.63
2023-02-02T03:27:58.319Z,20.08
2023-02-02T03:30:24.826Z,14.15
2023-02-02T03:32:52.147Z,14.32
2023-02-02T03:35:20.708Z,18.75
2023-02-02T03:37:47.828Z,13.30
2023-02-02T03:40:14.745Z,15.98
2023-02-02T03:42:41.207Z,15.85
2023-02-02T03:45:08.174Z,17.20
2023-02-02T03:47:34.771Z,15.35
2023-02-02T03:50:01.256Z,12.50
2023-02-02T03:52:27.932Z,15.15
2023-02-02T03:54:54.591Z,18.05
2023-02-02T03:57:21.068Z,18.58
2023-02-02T03:59:47.504Z,14.68
2023-02-02T04:02:13.902Z,18.42
2023-02-02T04:04:40.387Z,13.20
2023-02-02T04:07:06.980Z,16.90
2023-02-02T04:09:33.637Z,16.67
2023-02-02T04:12:00.218Z,18.88
2023-02-02T04:14:26.665Z,15.63
2023-02-02T04:16:53.095Z,12.20
2023-02-02T04:19:19.521Z,14.82
2023-02-02T04:21:46.045Z,16.33
2023-02-02T04:24:13.646Z,17.95
2023-02-02T04:26:40.356Z,13.95
2023-02-02T04:29:07.244Z,13.85
2023-02-02T04:31:33.899Z,15.80
2023-02-02T04:34:00.958Z,17.00
2023-02-02T04:36:27.540Z,15.32
2023-02-02T04:38:55.215Z,16.83
2023-02-02T04:41:22.491Z,14.52
2023-02-02T04:43:49.157Z,14.48
2023-02-02T04:46:15.700Z,16.65
2023-02-02T04:48:42.213Z,15.20
2023-02-02T04:51:13.827Z,13.85
2023-02-02T04:53:41.509Z,16.85
2023-02-02T04:56:18.473Z,15.88
2023-02-02T04:58:45.418Z,13.15
2023-02-02T05:01:15.354Z,16.08
2023-02-02T05:03:42.141Z,13.70
2023-02-02T05:06:08.809Z,12.50
2023-02-02T05:08:35.904Z,15.30
2023-02-02T05:11:14.085Z,13.90
2023-02-02T05:13:40.963Z,12.25
2023-02-02T05:16:07.552Z,13.02
2023-02-02T05:18:34.038Z,14.70
2023-02-02T05:21:01.685Z,13.88
2023-02-02T05:23:28.437Z,11.63
2023-02-02T05:25:55.364Z,13.40
2023-02-02T05:28:22.178Z,15.32
2023-02-02T05:30:48.738Z,8.45
2023-02-02T05:33:15.645Z,9.50
2023-02-02T05:35:42.118Z,9.77
2023-02-02T05:38:08.592Z,11.65
2023-02-02T05:40:35.086Z,11.20
2023-02-02T05:43:01.562Z,9.63
2023-02-02T05:45:28.029Z,10.18
2023-02-02T05:47:55.586Z,11.82
2023-02-02T05:50:22.305Z,11.68
2023-02-02T05:55:27.646Z,9.65
2023-02-02T05:57:54.090Z,10.45
2023-02-02T06:00:20.839Z,14.70
2023-02-02T06:02:47.447Z,15.30
2023-02-02T06:05:14.052Z,14.23
2023-02-02T06:07:40.603Z,10.23
2023-02-02T06:10:07.324Z,11.20
2023-02-02T06:12:33.789Z,11.90
2023-02-02T06:15:00.530Z,10.48
2023-02-02T06:17:26.995Z,9.00
2023-02-02T06:19:53.496Z,10.65
2023-02-02T06:22:20.008Z,16.60
2023-02-02T06:24:46.477Z,13.80
2023-02-02T06:27:12.927Z,12.15
2023-02-02T06:29:39.573Z,12.00
2023-02-02T06:32:06.143Z,14.77
2023-02-02T06:34:32.623Z,9.88
2023-02-02T06:36:59.192Z,12.77
2023-02-02T06:39:25.659Z,9.95
2023-02-02T06:41:52.203Z,9.32
2023-02-02T06:44:20.821Z,11.10
2023-02-02T06:46:47.566Z,7.28
2023-02-02T06:49:14.059Z,11.20
2023-02-02T06:51:40.532Z,14.25
2023-02-02T06:54:07.055Z,11.10
2023-02-02T06:56:33.740Z,8.77
2023-02-02T06:59:00.219Z,12.25
2023-02-02T07:01:26.783Z,12.88
2023-02-02T07:03:53.472Z,11.73
2023-02-02T07:06:22.722Z,14.48
2023-02-02T07:09:02.248Z,10.05
2023-02-02T07:11:31.339Z,11.48
2023-02-02T07:13:57.984Z,11.68
2023-02-02T07:16:24.534Z,9.50
2023-02-02T07:18:50.985Z,9.13
2023-02-02T07:21:19.673Z,13.63
2023-02-02T07:23:46.849Z,11.82
2023-02-02T07:26:18.447Z,15.43
2023-02-02T07:28:45.305Z,12.25
2023-02-02T07:31:18.680Z,18.52
2023-02-02T07:33:45.926Z,15.38
2023-02-02T07:36:14.219Z,13.73
2023-02-02T07:38:40.686Z,13.32
2023-02-02T07:41:07.122Z,13.35
2023-02-02T07:43:33.606Z,17.05
2023-02-02T07:46:04.678Z,14.60
2023-02-02T07:48:31.201Z,13.18
2023-02-02T07:51:05.639Z,13.68
2023-02-02T07:53:33.035Z,11.55
2023-02-02T07:56:14.471Z,12.35
2023-02-02T07:58:41.313Z,11.73
2023-02-02T08:01:09.665Z,11.00
2023-02-02T08:03:37.111Z,14.23
2023-02-02T08:06:18.791Z,11.45
2023-02-02T08:08:46.214Z,10.98
2023-02-02T08:11:13.960Z,10.15
2023-02-02T08:13:41.243Z,11.27
2023-02-02T08:16:08.383Z,11.60
2023-02-02T08:18:35.836Z,10.77
2023-02-02T08:21:03.690Z,12.98
2023-02-02T08:23:31.192Z,12.10
2023-02-02T08:26:07.898Z,10.77
2023-02-02T08:28:36.233Z,11.02
2023-02-02T08:31:14.479Z,15.38
2023-02-02T08:33:41.011Z,11.60
2023-02-02T08:36:15.703Z,11.65
2023-02-02T08:38:42.322Z,13.35
2023-02-02T08:41:10.312Z,9.63
2023-02-02T08:43:37.190Z,13.68
2023-02-02T08:46:05.553Z,9.68
2023-02-02T08:48:32.177Z,17.67
2023-02-02T08:50:59.202Z,9.52
2023-02-02T08:53:26.466Z,14.23
2023-02-02T08:55:59.988Z,11.48
2023-02-02T08:58:26.861Z,11.85
2023-02-02T09:00:53.613Z,12.20
2023-02-02T09:03:20.078Z,14.73
2023-02-02T09:05:46.526Z,11.93
2023-02-02T09:08:13.221Z,11.95
2023-02-02T09:10:39.712Z,12.55
2023-02-02T09:13:06.141Z,10.30
2023-02-02T09:15:32.756Z,14.32
2023-02-02T09:17:59.152Z,13.45
2023-02-02T09:20:25.560Z,11.02
2023-02-02T09:22:51.949Z,10.32
2023-02-02T09:25:18.371Z,11.45
2023-02-02T09:27:44.816Z,9.82
2023-02-02T09:30:11.828Z,8.70
2023-02-02T09:32:38.280Z,7.78
2023-02-02T09:35:04.870Z,10.43
2023-02-02T09:37:33.984Z,9.43
2023-02-02T09:40:00.400Z,9.75
2023-02-02T09:42:49.638Z,11.88
2023-02-02T09:48:00.213Z,10.55
2023-02-02T09:50:44.392Z,9.45
2023-02-02T09:53:17.055Z,9.23
2023-02-02T09:55:45.688Z,12.75
2023-02-02T09:58:36.965Z,7.65
2023-02-02T10:01:16.455Z,9.13
2023-02-02T10:04:12.436Z,14.48
2023-02-02T10:06:43.793Z,9.15
2023-02-02T10:09:34.881Z,13.32
2023-02-02T10:12:20.203Z,8.57
2023-02-02T10:14:52.462Z,8.65
2023-02-02T10:17:56.524Z,7.60
2023-02-02T10:20:31.884Z,7.97
2023-02-02T10:23:04.111Z,8.30
2023-02-02T10:25:30.997Z,8.00
2023-02-02T10:28:09.914Z,7.13
2023-02-02T10:30:47.766Z,7.35
2023-02-02T10:33:21.240Z,7.55
2023-02-02T10:36:12.022Z,6.10
2023-02-02T10:38:45.215Z,7.60
2023-02-02T10:41:23.092Z,8.32
2023-02-02T10:44:11.418Z,7.90
2023-02-02T10:46:43.900Z,5.50
2023-02-02T10:49:29.256Z,9.32
2023-02-02T10:52:15.244Z,6.35
2023-02-02T10:55:00.413Z,5.68
2023-02-02T10:57:37.058Z,7.13
2023-02-02T11:00:09.471Z,6.63
2023-02-02T11:02:35.952Z,5.35
2023-02-02T11:05:21.065Z,5.70
2023-02-02T11:07:47.599Z,5.75
2023-02-02T11:10:14.028Z,5.80
2023-02-02T11:12:42.720Z,6.93
2023-02-02T11:15:29.508Z,5.75
2023-02-02T11:17:56.139Z,5.22
2023-02-02T11:20:34.075Z,4.85
2023-02-02T11:23:02.797Z,5.35
2023-02-02T11:25:37.835Z,7.47
2023-02-02T11:28:18.602Z,4.57
2023-02-02T11:30:52.255Z,4.32
2023-02-02T11:33:29.434Z,8.65
2023-02-02T11:35:58.509Z,4.78
2023-02-02T11:38:26.230Z,3.83
2023-02-02T11:41:08.959Z,4.63
2023-02-02T11:43:50.979Z,6.20
2023-02-02T11:46:20.771Z,4.80
2023-02-02T11:49:00.888Z,3.38
2023-02-02T11:51:28.416Z,5.57
2023-02-02T11:54:06.589Z,6.97
2023-02-02T11:56:35.471Z,2.90
2023-02-02T11:59:03.811Z,7.57
2023-02-02T12:01:35.753Z,5.68
2023-02-02T12:04:17.549Z,4.20
2023-02-02T12:06:44.417Z,4.65
2023-02-02T12:09:14.507Z,5.93
2023-02-02T12:12:07.603Z,4.15
2023-02-02T12:15:13.000Z,4.60
2023-02-02T12:17:42.873Z,5.40
2023-02-02T12:20:33.339Z,5.13
2023-02-02T12:23:22.353Z,5.57
2023-02-02T12:26:26.021Z,3.65
2023-02-02T12:28:52.420Z,4.68
2023-02-02T12:31:46.749Z,2.60
2023-02-02T12:34:50.352Z,3.33
2023-02-02T12:37:24.482Z,4.85
2023-02-02T12:40:02.838Z,3.13
2023-02-02T12:42:47.551Z,4.00
2023-02-02T12:45:38.277Z,2.95
2023-02-02T12:48:33.224Z,2.55
2023-02-02T12:51:31.390Z,4.60
2023-02-02T12:54:44.326Z,4.03
2023-02-02T12:57:32.771Z,4.15
2023-02-02T13:00:10.157Z,4.82
2023-02-02T13:02:44.730Z,4.50
2023-02-02T13:05:46.852Z,3.05
2023-02-02T13:08:18.568Z,4.40
2023-02-02T13:10:53.415Z,4.20
2023-02-02T13:13:24.542Z,3.83
2023-02-02T13:15:59.351Z,3.58
2023-02-02T13:18:46.340Z,6.05
2023-02-02T13:21:16.777Z,3.33
2023-02-02T13:23:46.297Z,6.03
2023-02-02T13:26:18.415Z,6.25
2023-02-02T13:28:53.004Z,6.78
2023-02-02T13:31:26.118Z,3.78
2023-02-02T13:34:17.821Z,2.53
2023-02-02T13:36:48.989Z,3.20
2023-02-02T13:39:20.597Z,5.95
2023-02-02T13:41:47.553Z,4.85
2023-02-02T13:44:21.637Z,3.92
2023-02-02T13:46:59.881Z,4.95
2023-02-02T13:49:32.035Z,2.15
2023-02-02T13:52:36.169Z,4.30
2023-02-02T13:55:05.266Z,3.40
2023-02-02T13:57:52.652Z,2.78
2023-02-02T14:00:21.723Z,3.28
2023-02-02T14:02:51.252Z,4.55
2023-02-02T14:05:28.187Z,4.47
2023-02-02T14:08:18.836Z,2.88
2023-02-02T14:10:57.637Z,2.28
2023-02-02T14:13:55.429Z,4.13
2023-02-02T14:16:24.026Z,5.13
2023-02-02T14:18:50.728Z,3.67
2023-02-02T14:21:48.969Z,4.85
2023-02-02T14:24:37.250Z,2.87
2023-02-02T14:27:09.896Z,3.15
2023-02-02T14:29:46.790Z,3.65
2023-02-02T14:32:27.603Z,7.30
2023-02-02T14:34:55.754Z,4.28
2023-02-02T14:37:28.215Z,3.78
2023-02-02T14:40:06.685Z,3.88
2023-02-02T14:43:20.668Z,3.60
2023-02-02T14:45:48.819Z,4.05
2023-02-02T14:48:20.207Z,5.97
2023-02-02T14:50:53.571Z,4.68
2023-02-02T14:53:29.237Z,4.88
2023-02-02T14:56:01.637Z,4.60
2023-02-02T14:58:34.845Z,3.15
2023-02-02T15:01:10.656Z,4.97
2023-02-02T15:03:43.122Z,3.55
2023-02-02T15:06:32.959Z,4.00
2023-02-02T15:09:27.669Z,1.48
2023-02-02T15:12:03.149Z,4.38
2023-02-02T15:14:35.632Z,2.78
2023-02-02T15:17:05.061Z,4.72
2023-02-02T15:19:35.730Z,5.57
2023-02-02T15:22:24.375Z,5.70
2023-02-02T15:24:51.538Z,4.07
2023-02-02T15:27:18.929Z,5.65
2023-02-02T15:29:48.045Z,4.13
2023-02-02T15:32:20.322Z,5.82
2023-02-02T15:34:48.867Z,5.90
2023-02-02T15:37:20.481Z,4.93
2023-02-02T15:39:49.006Z,7.40
2023-02-02T15:42:37.381Z,4.30
2023-02-02T15:45:03.986Z,4.03
2023-02-02T15:47:33.308Z,4.50
2023-02-02T15:52:29.619Z,6.07
2023-02-02T15:54:57.795Z,5.32
2023-02-02T15:57:33.055Z,4.25
2023-02-02T16:00:00.949Z,4.78
2023-02-02T16:02:30.215Z,3.83
2023-02-02T16:04:56.729Z,4.88
2023-02-02T16:07:31.492Z,5.85
2023-02-02T16:10:06.906Z,5.50
2023-02-02T16:12:34.393Z,5.85
2023-02-02T16:15:01.219Z,6.00
2023-02-02T16:17:30.378Z,6.57
2023-02-02T16:20:03.601Z,4.82
2023-02-02T16:22:31.088Z,5.93
2023-02-02T16:25:00.996Z,5.88
2023-02-02T16:27:29.337Z,5.88
2023-02-02T16:30:00.132Z,5.35
2023-02-02T16:32:38.864Z,5.90
2023-02-02T16:35:09.531Z,6.00
2023-02-02T16:37:36.398Z,3.80
2023-02-02T16:40:25.848Z,5.88
2023-02-02T17:01:05.182Z,7.07
2023-02-02T17:08:04.487Z,4.65
2023-02-02T17:10:39.047Z,6.38
2023-02-02T17:13:30.380Z,8.90
2023-02-02T17:15:57.451Z,6.85
2023-02-02T17:18:23.933Z,7.57
2023-02-02T17:20:57.439Z,4.70
2023-02-02T17:23:25.784Z,6.07
2023-02-02T17:25:52.631Z,7.45
2023-02-02T17:28:21.651Z,5.50
2023-02-02T17:30:50.286Z,7.05
2023-02-02T17:33:18.319Z,8.98
2023-02-02T17:35:54.466Z,6.20
2023-02-02T17:38:23.377Z,7.18
2023-02-02T17:40:50.252Z,9.40
2023-02-02T17:43:16.727Z,9.82
2023-02-02T17:45:43.251Z,7.60
2023-02-02T17:48:11.747Z,7.70
2023-02-02T17:50:39.197Z,9.20
2023-02-02T17:53:05.840Z,10.65
2023-02-02T17:55:38.755Z,8.07
2023-02-02T17:58:05.643Z,9.88
2023-02-02T18:00:32.317Z,11.60
2023-02-02T18:03:12.605Z,6.50
2023-02-02T18:05:41.366Z,11.73
2023-02-02T18:08:12.744Z,7.10
2023-02-02T18:10:39.938Z,8.23
2023-02-02T18:13:06.741Z,7.13
2023-02-02T18:15:34.942Z,7.25
2023-02-02T18:18:01.984Z,10.20
2023-02-02T18:20:28.539Z,7.10
2023-02-02T18:22:55.022Z,9.68
2023-02-02T18:25:21.641Z,8.45
2023-02-02T18:27:50.580Z,9.45
2023-02-02T18:30:17.043Z,9.23
2023-02-02T18:32:43.572Z,9.68
2023-02-02T18:35:11.626Z,8.93
2023-02-02T18:37:38.514Z,8.45
2023-02-02T18:40:06.809Z,8.73
2023-02-02T18:45:00.808Z,12.13
2023-02-02T18:47:27.694Z,6.25
2023-02-02T18:49:54.281Z,8.05
2023-02-02T18:52:20.710Z,10.40
2023-02-02T18:54:47.737Z,8.98
2023-02-02T18:57:14.542Z,10.48
2023-02-02T18:59:41.762Z,6.82
2023-02-02T19:02:13.460Z,9.80
2023-02-02T19:04:40.019Z,8.45
2023-02-02T19:07:25.315Z,7.07
2023-02-02T19:09:52.815Z,10.40
2023-02-02T19:12:19.595Z,7.85
2023-02-02T19:14:46.027Z,7.60
2023-02-02T19:17:24.357Z,7.57
2023-02-02T19:19:50.963Z,8.87
2023-02-02T19:22:20.812Z,7.30
2023-02-02T19:24:48.101Z,8.90
2023-02-02T19:27:18.184Z,10.23
2023-02-02T19:29:46.172Z,6.97
2023-02-02T19:32:15.510Z,8.20
2023-02-02T19:37:22.514Z,9.50
2023-02-02T19:39:49.213Z,7.60
2023-02-02T19:42:15.777Z,10.77
2023-02-02T19:44:42.305Z,10.93
2023-02-02T19:47:25.771Z,12.60
2023-02-02T19:49:53.075Z,10.82
2023-02-02T19:52:24.370Z,8.45
2023-02-02T19:54:52.881Z,10.40
2023-02-02T19:57:25.428Z,8.60
2023-02-02T19:59:52.588Z,7.00
2023-02-02T20:02:29.615Z,10.10
2023-02-02T20:05:27.492Z,7.85
2023-02-02T20:08:01.302Z,9.15
2023-02-02T20:10:46.029Z,8.90
2023-02-02T20:13:19.876Z,6.32
2023-02-02T20:15:46.669Z,9.65
2023-02-02T20:18:21.837Z,6.38
2023-02-02T20:20:51.579Z,9.80
2023-02-02T20:23:43.623Z,10.60
2023-02-02T20:26:29.482Z,11.00
2023-02-02T20:28:58.059Z,11.70
2023-02-02T20:31:29.292Z,8.27
2023-02-02T20:33:57.599Z,8.63
2023-02-02T20:36:27.008Z,8.32
2023-02-02T20:41:20.067Z,6.95
2023-02-02T20:43:46.690Z,6.80
2023-02-02T20:46:13.564Z,11.88
2023-02-02T20:48:40.096Z,9.63
2023-02-02T20:51:06.895Z,10.00
2023-02-02T20:53:33.376Z,11.55
2023-02-02T20:56:02.054Z,9.65
2023-02-02T20:58:28.536Z,8.65
2023-02-02T21:00:56.124Z,8.82
2023-02-02T21:03:22.660Z,11.52
2023-02-02T21:05:49.134Z,10.63
2023-02-02T21:08:15.701Z,11.35
2023-02-02T21:10:42.209Z,12.07
2023-02-02T21:13:08.729Z,11.65
2023-02-02T21:15:35.162Z,13.73
2023-02-02T21:18:01.637Z,7.90
2023-02-02T21:20:28.472Z,11.65
2023-02-02T21:22:56.626Z,9.45
2023-02-02T21:25:23.062Z,11.40
2023-02-02T21:27:55.609Z,7.60
2023-02-02T21:30:22.419Z,12.13
2023-02-02T21:32:48.917Z,11.65
2023-02-02T21:35:15.666Z,9.75
2023-02-02T21:37:44.065Z,8.63
2023-02-02T21:40:13.805Z,9.90
2023-02-02T21:42:44.453Z,11.43
2023-02-02T21:45:20.184Z,13.88
2023-02-02T21:47:58.102Z,9.90
2023-02-02T21:50:40.308Z,11.70
2023-02-02T21:53:19.121Z,10.15
2023-02-02T21:55:50.165Z,10.85
2023-02-02T21:58:27.671Z,9.10
2023-02-02T22:00:58.206Z,9.55
2023-02-02T22:03:34.707Z,12.80
2023-02-02T22:06:25.016Z,8.10
2023-02-02T22:08:52.322Z,11.15
2023-02-02T22:11:31.150Z,9.95
2023-02-02T22:14:01.932Z,12.45
2023-02-02T22:16:28.621Z,12.10
2023-02-02T22:18:55.393Z,10.52
2023-02-02T22:21:22.370Z,9.38
2023-02-02T22:23:48.917Z,9.27
2023-02-02T22:26:31.920Z,8.15
2023-02-02T22:28:58.361Z,9.48
2023-02-02T22:31:25.397Z,9.65
2023-02-02T22:33:51.929Z,10.50
2023-02-02T22:36:18.455Z,7.40
2023-02-02T22:38:44.945Z,9.85
2023-02-02T22:41:11.507Z,9.45
2023-02-02T22:43:37.969Z,9.68
2023-02-02T22:46:04.711Z,8.48
2023-02-02T22:48:31.233Z,8.63
2023-02-02T22:50:57.661Z,9.48
2023-02-02T22:53:24.131Z,8.32
2023-02-02T22:55:56.295Z,10.90
2023-02-02T22:58:24.422Z,8.70
2023-02-02T23:00:51.051Z,12.32
2023-02-02T23:03:17.635Z,9.65
2023-02-02T23:05:44.125Z,7.63
2023-02-02T23:08:10.627Z,9.73
2023-02-02T23:10:37.293Z,8.40
2023-02-02T23:13:04.743Z,10.02
2023-02-02T23:15:31.263Z,9.10
2023-02-02T23:17:57.808Z,7.32
2023-02-02T23:20:24.875Z,9.65
2023-02-02T23:22:51.518Z,6.43
2023-02-02T23:25:21.877Z,9.00
2023-02-02T23:27:48.563Z,10.68
2023-02-02T23:30:15.790Z,6.03
2023-02-02T23:32:42.516Z,6.13
2023-02-02T23:35:10.785Z,14.32
2023-02-02T23:37:37.865Z,10.50
2023-02-02T23:40:04.652Z,10.45
2023-02-02T23:42:31.140Z,11.93
2023-02-02T23:44:57.581Z,8.32
2023-02-02T23:47:24.071Z,12.50
2023-02-02T23:49:50.565Z,8.07
2023-02-02T23:52:17.093Z,8.52
2023-02-02T23:54:43.627Z,9.60
2023-02-02T23:57:10.352Z,9.93
2023-02-02T23:59:36.879Z,9.77
